Time;durP1;ratioP1;P1;durP2;ratioP2;P2;SDS_P1;SDS_P2;PMS_P1;PMS_P2;Temp;Humidity;BMP_temperature;BMP_pressure;BME280_temperature;BME280_humidity;BME280_pressure;Samples;Min_cycle;Max_cycle;Signal;HPM_P1;HPM_P2
2024/03/11 00:01:44;;;;;;;47.95;30.38;;;;;;;;;;5022437;28;20064;-66
2024/03/11 00:04:11;;;;;;;50.05;30.15;;;;;;;;;;5021877;28;20148;-66
2024/03/11 00:06:40;;;;;;;51.22;32.05;;;;;;;;;;5020948;28;20131;-66
2024/03/11 00:09:20;;;;;;;49.15;30.88;;;;;;;;;;5037904;28;20123;-66
2024/03/11 00:11:55;;;;;;;50.92;30.08;;;;;;;;;;5043007;28;20420;-66
2024/03/11 00:14:26;;;;;;;50.78;30.13;;;;;;;;;;5022135;28;20515;-66
2024/03/11 00:16:53;;;;;;;48.35;30.05;;;;;;;;;;5019677;28;20061;-66
2024/03/11 00:19:20;;;;;;;52.30;30.17;;;;;;;;;;5037652;28;20139;-66
2024/03/11 00:21:46;;;;;;;51.42;30.58;;;;;;;;;;5021123;28;20052;-66
2024/03/11 00:24:12;;;;;;;48.15;29.05;;;;;;;;;;5034830;28;20041;-66
2024/03/11 00:26:38;;;;;;;52.00;30.23;;;;;;;;;;5019566;28;20053;-66
2024/03/11 00:29:04;;;;;;;46.75;29.30;;;;;;;;;;5037997;28;20064;-66
2024/03/11 00:31:32;;;;;;;52.20;28.50;;;;;;;;;;5019667;28;20485;-66
2024/03/11 00:33:58;;;;;;;50.10;29.55;;;;;;;;;;5020577;28;20091;-66
2024/03/11 00:36:25;;;;;;;48.63;28.98;;;;;;;;;;5017331;28;20068;-66
2024/03/11 00:38:52;;;;;;;48.25;29.08;;;;;;;;;;5014728;28;20064;-66
2024/03/11 00:41:18;;;;;;;52.92;30.00;;;;;;;;;;5017301;28;20045;-66
2024/03/11 00:43:45;;;;;;;46.75;28.33;;;;;;;;;;5018936;28;20045;-66
2024/03/11 00:46:12;;;;;;;44.97;27.92;;;;;;;;;;5016706;28;20057;-66
2024/03/11 00:48:38;;;;;;;49.65;28.98;;;;;;;;;;5021091;28;20047;-66
2024/03/11 00:51:04;;;;;;;47.33;28.15;;;;;;;;;;5002730;28;20049;-66
2024/03/11 00:53:31;;;;;;;48.53;29.67;;;;;;;;;;5015160;28;20045;-66
2024/03/11 00:55:57;;;;;;;50.22;28.40;;;;;;;;;;5007525;28;20160;-66
2024/03/11 00:58:24;;;;;;;46.15;28.25;;;;;;;;;;5000386;28;20045;-66
2024/03/11 01:00:51;;;;;;;48.67;28.27;;;;;;;;;;5007737;28;20068;-66
2024/03/11 01:03:18;;;;;;;49.83;28.23;;;;;;;;;;5001003;28;20179;-66
2024/03/11 01:05:44;;;;;;;46.42;27.50;;;;;;;;;;5013315;28;20099;-66
2024/03/11 01:08:11;;;;;;;56.45;30.33;;;;;;;;;;5015903;28;20033;-66
2024/03/11 01:10:37;;;;;;;52.17;29.67;;;;;;;;;;5032715;28;20104;-66
2024/03/11 01:13:03;;;;;;;48.42;28.85;;;;;;;;;;5022478;28;20037;-66
2024/03/11 01:15:29;;;;;;;53.15;28.83;;;;;;;;;;5020630;28;20069;-66
2024/03/11 01:17:55;;;;;;;49.92;28.92;;;;;;;;;;5020354;28;20729;-65
2024/03/11 01:20:24;;;;;;;47.90;28.15;;;;;;;;;;5020210;28;20041;-65
2024/03/11 01:22:51;;;;;;;47.60;29.20;;;;;;;;;;5018274;28;20057;-65
2024/03/11 01:25:20;;;;;;;53.42;28.52;;;;;;;;;;5022289;28;20751;-65
2024/03/11 01:27:46;;;;;;;49.20;29.92;;;;;;;;;;5021445;28;20132;-65
2024/03/11 01:30:14;;;;;;;47.42;27.65;;;;;;;;;;5027445;28;20056;-67
2024/03/11 01:32:44;;;;;;;49.53;29.20;;;;;;;;;;5037406;28;20453;-67
2024/03/11 01:35:11;;;;;;;46.10;27.15;;;;;;;;;;5023640;28;20056;-67
2024/03/11 01:37:37;;;;;;;49.47;29.35;;;;;;;;;;5022079;28;20049;-67
2024/03/11 01:40:04;;;;;;;46.78;27.75;;;;;;;;;;5020339;28;20053;-67
2024/03/11 01:42:30;;;;;;;45.75;27.75;;;;;;;;;;5018602;28;20396;-67
2024/03/11 01:44:56;;;;;;;46.25;28.23;;;;;;;;;;5018275;28;20099;-67
2024/03/11 01:47:24;;;;;;;43.15;27.13;;;;;;;;;;5036414;28;20051;-67
2024/03/11 01:49:52;;;;;;;46.67;26.92;;;;;;;;;;5018887;28;20049;-67
2024/03/11 01:52:21;;;;;;;50.22;28.40;;;;;;;;;;5040404;28;20194;-67
2024/03/11 01:54:47;;;;;;;48.70;29.05;;;;;;;;;;5021463;28;20374;-65
2024/03/11 01:57:15;;;;;;;53.28;29.80;;;;;;;;;;5032018;28;20140;-66
2024/03/11 01:59:42;;;;;;;54.45;27.80;;;;;;;;;;5016167;28;20206;-66
2024/03/11 02:02:08;;;;;;;48.72;27.05;;;;;;;;;;5037185;28;20049;-66
2024/03/11 02:04:35;;;;;;;50.13;27.48;;;;;;;;;;5041573;28;20048;-65
2024/03/11 02:07:02;;;;;;;50.05;27.73;;;;;;;;;;5038407;28;20201;-66
2024/03/11 02:09:28;;;;;;;45.85;26.55;;;;;;;;;;5024231;28;20062;-66
2024/03/11 02:11:54;;;;;;;48.72;27.10;;;;;;;;;;5038223;28;20426;-66
2024/03/11 02:14:21;;;;;;;49.90;27.23;;;;;;;;;;5037289;28;20041;-66
2024/03/11 02:16:47;;;;;;;45.70;26.38;;;;;;;;;;5036794;28;20052;-66
2024/03/11 02:19:17;;;;;;;46.45;26.38;;;;;;;;;;5019689;28;20056;-65
2024/03/11 02:21:46;;;;;;;50.40;28.08;;;;;;;;;;5038034;28;20524;-66
2024/03/11 02:24:15;;;;;;;48.15;26.88;;;;;;;;;;5037118;28;20380;-66
2024/03/11 02:26:43;;;;;;;41.58;25.77;;;;;;;;;;5021257;28;20080;-66
2024/03/11 02:29:10;;;;;;;46.00;27.98;;;;;;;;;;5018592;28;20045;-66
2024/03/11 02:31:36;;;;;;;51.65;27.88;;;;;;;;;;5019204;28;20107;-66
2024/03/11 02:34:02;;;;;;;42.60;25.80;;;;;;;;;;5023313;28;20060;-66
2024/03/11 02:36:28;;;;;;;44.00;25.60;;;;;;;;;;5019120;28;20191;-66
2024/03/11 02:38:54;;;;;;;40.67;25.35;;;;;;;;;;5015967;28;20057;-66
2024/03/11 02:41:21;;;;;;;44.78;25.80;;;;;;;;;;5019753;28;20116;-66
2024/03/11 02:43:47;;;;;;;44.55;28.08;;;;;;;;;;5015467;28;20056;-67
2024/03/11 02:46:13;;;;;;;47.20;26.83;;;;;;;;;;5015976;28;21414;-67
2024/03/11 02:48:39;;;;;;;44.40;26.80;;;;;;;;;;5015968;28;20050;-66
2024/03/11 02:51:05;;;;;;;42.63;26.02;;;;;;;;;;5019220;28;20454;-66
2024/03/11 02:53:33;;;;;;;41.97;26.35;;;;;;;;;;5020488;28;20049;-66
2024/03/11 02:56:07;;;;;;;47.00;26.52;;;;;;;;;;5011465;28;20479;-67
2024/03/11 02:58:35;;;;;;;40.47;25.77;;;;;;;;;;5022959;28;20144;-67
2024/03/11 03:01:01;;;;;;;49.83;25.83;;;;;;;;;;5014581;28;20045;-66
2024/03/11 03:03:27;;;;;;;44.35;26.13;;;;;;;;;;5014586;28;20482;-67
2024/03/11 03:05:53;;;;;;;44.83;26.90;;;;;;;;;;5016206;28;20045;-66
2024/03/11 03:08:20;;;;;;;43.58;26.88;;;;;;;;;;5007814;28;20072;-67
2024/03/11 03:10:46;;;;;;;46.58;25.75;;;;;;;;;;5011405;28;20089;-67
2024/03/11 03:13:12;;;;;;;43.50;26.92;;;;;;;;;;5015759;28;20042;-67
2024/03/11 03:15:38;;;;;;;40.90;24.92;;;;;;;;;;5020110;28;20119;-67
2024/03/11 03:18:05;;;;;;;47.60;26.10;;;;;;;;;;5020362;28;20041;-67
2024/03/11 03:20:32;;;;;;;43.78;25.50;;;;;;;;;;5017670;28;20417;-67
2024/03/11 03:22:58;;;;;;;40.67;24.13;;;;;;;;;;5020890;28;20086;-67
2024/03/11 03:25:30;;;;;;;42.50;26.33;;;;;;;;;;5018037;28;20046;-67
2024/03/11 03:27:57;;;;;;;44.00;24.92;;;;;;;;;;5019270;28;20126;-67
2024/03/11 03:30:23;;;;;;;40.38;24.33;;;;;;;;;;5015952;28;20434;-67
2024/03/11 03:32:49;;;;;;;40.90;25.02;;;;;;;;;;5022631;28;22186;-65
2024/03/11 03:35:15;;;;;;;40.50;24.23;;;;;;;;;;5019434;28;20126;-65
2024/03/11 03:37:42;;;;;;;43.53;25.08;;;;;;;;;;5020915;28;20080;-66
2024/03/11 03:40:18;;;;;;;44.35;25.17;;;;;;;;;;5021927;28;20053;-66
2024/03/11 03:42:46;;;;;;;43.30;23.38;;;;;;;;;;5022661;28;20050;-65
2024/03/11 03:45:13;;;;;;;42.33;24.67;;;;;;;;;;5022936;28;20060;-65
2024/03/11 03:47:39;;;;;;;45.72;25.52;;;;;;;;;;5024519;28;20142;-66
2024/03/11 03:50:08;;;;;;;41.40;24.45;;;;;;;;;;5019811;28;20101;-66
2024/03/11 03:52:38;;;;;;;41.80;25.52;;;;;;;;;;5024436;28;20081;-65
2024/03/11 03:55:04;;;;;;;42.83;24.38;;;;;;;;;;5024962;28;20354;-65
2024/03/11 03:57:31;;;;;;;35.15;22.85;;;;;;;;;;5023467;28;20543;-65
2024/03/11 03:59:58;;;;;;;44.40;25.48;;;;;;;;;;5020094;28;20081;-65
2024/03/11 04:02:24;;;;;;;46.20;26.65;;;;;;;;;;5014829;28;20077;-66
2024/03/11 04:04:50;;;;;;;39.60;24.70;;;;;;;;;;5001183;28;20104;-66
2024/03/11 04:07:16;;;;;;;44.15;25.45;;;;;;;;;;5021279;28;20049;-66
2024/03/11 04:09:42;;;;;;;41.35;25.58;;;;;;;;;;5024634;28;20472;-67
2024/03/11 04:12:09;;;;;;;41.40;24.98;;;;;;;;;;5024550;28;20124;-66
2024/03/11 04:14:41;;;;;;;40.47;25.88;;;;;;;;;;5041070;28;20045;-66
2024/03/11 04:17:07;;;;;;;44.75;25.92;;;;;;;;;;5024417;28;20054;-65
2024/03/11 04:19:34;;;;;;;46.97;26.35;;;;;;;;;;5021731;28;20045;-66
2024/03/11 04:22:00;;;;;;;42.05;24.73;;;;;;;;;;5018361;28;20099;-66
2024/03/11 04:24:26;;;;;;;43.33;24.35;;;;;;;;;;5021833;28;20090;-66
2024/03/11 04:26:53;;;;;;;44.03;25.65;;;;;;;;;;5026629;28;20055;-66
2024/03/11 04:29:19;;;;;;;47.28;26.85;;;;;;;;;;5025594;28;20168;-67
2024/03/11 04:31:45;;;;;;;48.30;25.92;;;;;;;;;;5023891;28;20064;-66
2024/03/11 04:34:11;;;;;;;44.95;26.35;;;;;;;;;;5026190;28;20501;-67
2024/03/11 04:36:41;;;;;;;48.08;25.88;;;;;;;;;;5024720;28;20068;-67
2024/03/11 04:39:07;;;;;;;42.55;24.55;;;;;;;;;;5023994;28;20509;-66
2024/03/11 04:41:35;;;;;;;42.38;25.23;;;;;;;;;;5023671;28;20126;-67
2024/03/11 04:44:02;;;;;;;42.20;24.52;;;;;;;;;;5017137;28;20045;-67
2024/03/11 04:46:28;;;;;;;47.30;24.98;;;;;;;;;;5021677;28;20103;-67
2024/03/11 04:48:54;;;;;;;45.97;25.10;;;;;;;;;;5024557;28;20041;-67
2024/03/11 04:51:20;;;;;;;51.38;26.63;;;;;;;;;;5024474;28;20464;-67
2024/03/11 04:53:48;;;;;;;47.45;24.48;;;;;;;;;;5022556;28;20049;-67
2024/03/11 04:56:15;;;;;;;46.03;24.83;;;;;;;;;;5022505;28;20049;-67
2024/03/11 04:58:41;;;;;;;48.63;25.13;;;;;;;;;;5024979;28;20049;-67
2024/03/11 05:01:08;;;;;;;47.88;23.75;;;;;;;;;;5024002;28;20077;-67
2024/03/11 05:03:34;;;;;;;42.78;23.83;;;;;;;;;;5023115;28;20064;-67
2024/03/11 05:06:00;;;;;;;45.42;23.85;;;;;;;;;;5020832;28;20365;-66
2024/03/11 05:08:27;;;;;;;47.83;23.15;;;;;;;;;;5025844;28;20045;-67
2024/03/11 05:10:53;;;;;;;45.95;25.35;;;;;;;;;;5022768;28;20049;-66
2024/03/11 05:13:19;;;;;;;48.97;25.25;;;;;;;;;;5023262;28;20064;-66
2024/03/11 05:15:47;;;;;;;49.22;26.00;;;;;;;;;;5023657;28;20234;-67
2024/03/11 05:18:15;;;;;;;46.33;25.85;;;;;;;;;;5020859;28;20107;-67
2024/03/11 05:20:42;;;;;;;55.80;26.83;;;;;;;;;;5021013;28;20049;-66
2024/03/11 05:23:08;;;;;;;44.58;24.02;;;;;;;;;;5023316;28;20120;-67
2024/03/11 05:25:35;;;;;;;52.30;26.08;;;;;;;;;;5023694;28;20515;-66
2024/03/11 05:28:01;;;;;;;45.33;25.77;;;;;;;;;;5023456;28;20045;-67
2024/03/11 05:30:27;;;;;;;47.78;24.83;;;;;;;;;;5022498;28;20105;-67
2024/03/11 05:32:56;;;;;;;44.42;24.52;;;;;;;;;;5037327;28;20053;-66
2024/03/11 05:35:22;;;;;;;49.45;27.13;;;;;;;;;;5023223;28;20542;-66
2024/03/11 05:37:48;;;;;;;44.28;23.95;;;;;;;;;;5006220;28;20056;-67
2024/03/11 05:40:14;;;;;;;46.10;24.90;;;;;;;;;;5020490;28;20054;-66
2024/03/11 05:42:41;;;;;;;47.35;24.25;;;;;;;;;;5022068;28;20045;-66
2024/03/11 05:45:07;;;;;;;42.20;24.02;;;;;;;;;;5024146;28;20053;-66
2024/03/11 05:47:34;;;;;;;44.58;24.23;;;;;;;;;;5018248;28;20516;-67
2024/03/11 05:50:03;;;;;;;43.00;24.05;;;;;;;;;;5020872;28;20072;-66
2024/03/11 05:52:30;;;;;;;46.55;23.60;;;;;;;;;;5018086;28;20205;-66
2024/03/11 05:54:57;;;;;;;45.08;23.38;;;;;;;;;;5038643;28;20123;-66
2024/03/11 05:57:29;;;;;;;46.47;24.02;;;;;;;;;;5022114;28;20041;-67
2024/03/11 05:59:56;;;;;;;52.55;25.08;;;;;;;;;;5035984;28;20042;-66
2024/03/11 06:02:23;;;;;;;52.90;26.85;;;;;;;;;;5022325;28;20065;-66
2024/03/11 06:04:49;;;;;;;41.08;22.58;;;;;;;;;;5021148;28;20059;-66
2024/03/11 06:07:23;;;;;;;51.67;23.67;;;;;;;;;;5021605;28;20128;-66
2024/03/11 06:09:55;;;;;;;40.90;21.67;;;;;;;;;;5023383;28;20045;-66
2024/03/11 06:12:21;;;;;;;43.30;23.33;;;;;;;;;;5022938;28;20061;-66
2024/03/11 06:14:47;;;;;;;51.67;24.17;;;;;;;;;;5022086;28;20071;-67
2024/03/11 06:17:15;;;;;;;49.38;24.98;;;;;;;;;;5023765;28;20187;-66
2024/03/11 06:19:42;;;;;;;40.30;21.27;;;;;;;;;;5022706;28;20082;-66
2024/03/11 06:22:10;;;;;;;44.10;22.75;;;;;;;;;;5020315;28;20517;-66
2024/03/11 06:24:38;;;;;;;46.20;22.83;;;;;;;;;;5015975;28;20124;-66
2024/03/11 06:27:04;;;;;;;43.70;22.10;;;;;;;;;;5016868;28;20385;-66
2024/03/11 06:29:30;;;;;;;46.47;22.65;;;;;;;;;;5016569;28;20069;-67
2024/03/11 06:31:58;;;;;;;40.65;23.23;;;;;;;;;;5020741;28;20049;-67
2024/03/11 06:34:26;;;;;;;47.13;21.98;;;;;;;;;;5018068;28;20086;-66
2024/03/11 06:36:52;;;;;;;41.55;21.83;;;;;;;;;;5023641;28;20051;-67
2024/03/11 06:39:18;;;;;;;50.90;22.25;;;;;;;;;;5019475;28;20086;-67
2024/03/11 06:41:45;;;;;;;48.25;20.58;;;;;;;;;;5020515;28;20103;-67
2024/03/11 06:44:11;;;;;;;43.13;21.17;;;;;;;;;;5020591;28;20502;-66
2024/03/11 06:46:37;;;;;;;44.92;21.67;;;;;;;;;;5021273;28;20485;-66
2024/03/11 06:49:04;;;;;;;40.25;20.48;;;;;;;;;;5022500;28;20096;-66
2024/03/11 06:51:30;;;;;;;43.67;21.27;;;;;;;;;;5023435;28;20041;-66
2024/03/11 06:53:59;;;;;;;51.22;22.20;;;;;;;;;;5017775;28;20080;-66
2024/03/11 06:56:27;;;;;;;49.95;21.20;;;;;;;;;;5021640;28;20365;-66
2024/03/11 06:58:53;;;;;;;43.22;21.80;;;;;;;;;;5022759;28;20045;-66
2024/03/11 07:01:20;;;;;;;44.55;21.73;;;;;;;;;;5023102;28;20076;-65
2024/03/11 07:03:46;;;;;;;44.28;21.55;;;;;;;;;;5021688;28;20069;-66
2024/03/11 07:06:12;;;;;;;45.35;21.85;;;;;;;;;;5020854;28;20448;-66
2024/03/11 07:08:38;;;;;;;42.90;19.65;;;;;;;;;;5021338;28;20044;-66
2024/03/11 07:11:05;;;;;;;44.72;21.88;;;;;;;;;;5024893;28;20525;-66
2024/03/11 07:13:32;;;;;;;43.75;20.15;;;;;;;;;;5021300;28;20520;-65
2024/03/11 07:15:58;;;;;;;42.30;20.65;;;;;;;;;;5020893;28;20044;-66
2024/03/11 07:18:26;;;;;;;37.28;20.65;;;;;;;;;;5020169;28;20075;-66
2024/03/11 07:20:57;;;;;;;44.22;20.00;;;;;;;;;;5020472;28;20053;-65
2024/03/11 07:23:23;;;;;;;42.05;21.63;;;;;;;;;;5020326;28;20068;-66
2024/03/11 07:25:49;;;;;;;46.72;20.77;;;;;;;;;;5023450;28;20550;-66
2024/03/11 07:28:17;;;;;;;39.90;19.75;;;;;;;;;;5022202;28;20077;-66
2024/03/11 07:30:45;;;;;;;44.92;20.95;;;;;;;;;;5037335;28;20057;-66
2024/03/11 07:33:16;;;;;;;39.25;21.20;;;;;;;;;;5026193;28;20133;-66
2024/03/11 07:35:43;;;;;;;40.53;20.15;;;;;;;;;;5039987;28;20108;-65
2024/03/11 07:38:09;;;;;;;50.55;21.48;;;;;;;;;;5028504;28;20041;-66
2024/03/11 07:40:36;;;;;;;47.63;21.13;;;;;;;;;;5018450;28;20041;-66
2024/03/11 07:43:03;;;;;;;40.60;19.83;;;;;;;;;;5017544;28;20057;-66
2024/03/11 07:45:30;;;;;;;40.28;21.33;;;;;;;;;;5032218;28;20060;-65
2024/03/11 07:47:57;;;;;;;42.70;20.95;;;;;;;;;;5001546;28;20094;-66
2024/03/11 07:50:23;;;;;;;44.50;19.88;;;;;;;;;;5042443;28;20503;-66
2024/03/11 07:52:50;;;;;;;43.63;20.25;;;;;;;;;;5042118;28;20083;-66
2024/03/11 07:55:17;;;;;;;43.95;23.05;;;;;;;;;;5040644;28;20029;-67
2024/03/11 07:57:46;;;;;;;41.42;18.40;;;;;;;;;;5042873;28;20100;-66
2024/03/11 08:00:17;;;;;;;42.40;19.63;;;;;;;;;;5040038;28;20046;-66
2024/03/11 08:02:46;;;;;;;43.65;20.40;;;;;;;;;;5021933;28;20068;-66
2024/03/11 08:05:13;;;;;;;42.90;21.75;;;;;;;;;;5024004;28;20102;-66
2024/03/11 08:07:41;;;;;;;36.92;18.95;;;;;;;;;;5021631;28;20065;-65
2024/03/11 08:10:09;;;;;;;46.28;21.27;;;;;;;;;;5042088;28;20562;-66
2024/03/11 08:12:35;;;;;;;37.60;19.10;;;;;;;;;;5022007;28;20049;-66
2024/03/11 08:15:04;;;;;;;42.88;20.58;;;;;;;;;;5024314;28;20041;-66
2024/03/11 08:17:31;;;;;;;42.25;19.83;;;;;;;;;;5043951;28;20076;-65
2024/03/11 08:19:57;;;;;;;39.50;19.52;;;;;;;;;;5030071;28;20163;-65
2024/03/11 08:22:23;;;;;;;35.47;19.05;;;;;;;;;;5045748;28;20480;-66
2024/03/11 08:24:49;;;;;;;42.70;19.80;;;;;;;;;;5026923;28;20431;-66
2024/03/11 08:27:16;;;;;;;37.40;19.27;;;;;;;;;;5046108;28;20141;-66
2024/03/11 08:29:43;;;;;;;38.17;19.02;;;;;;;;;;5023353;28;20062;-66
2024/03/11 08:32:12;;;;;;;38.58;20.92;;;;;;;;;;5026991;28;20054;-66
2024/03/11 08:34:39;;;;;;;33.88;17.75;;;;;;;;;;5024004;28;20065;-66
2024/03/11 08:37:05;;;;;;;38.42;19.05;;;;;;;;;;5024347;28;20090;-65
2024/03/11 08:39:33;;;;;;;40.38;19.30;;;;;;;;;;5024984;28;20114;-66
2024/03/11 08:41:59;;;;;;;37.72;19.88;;;;;;;;;;5025982;28;20049;-65
2024/03/11 08:44:29;;;;;;;36.05;19.67;;;;;;;;;;5024326;28;20124;-65
2024/03/11 08:46:56;;;;;;;43.90;19.98;;;;;;;;;;5024685;28;20424;-65
2024/03/11 08:49:24;;;;;;;43.80;19.15;;;;;;;;;;5026291;28;20397;-65
2024/03/11 08:51:50;;;;;;;36.83;19.30;;;;;;;;;;5023407;28;20053;-65
2024/03/11 08:54:16;;;;;;;35.55;20.25;;;;;;;;;;5021979;28;20131;-64
2024/03/11 08:56:42;;;;;;;35.35;21.20;;;;;;;;;;5024223;28;20120;-65
2024/03/11 08:59:12;;;;;;;42.70;20.63;;;;;;;;;;5026436;28;20084;-65
2024/03/11 09:01:40;;;;;;;38.33;19.88;;;;;;;;;;5025709;28;20056;-65
2024/03/11 09:04:10;;;;;;;36.83;19.58;;;;;;;;;;5024222;28;20049;-65
2024/03/11 09:06:39;;;;;;;38.72;20.45;;;;;;;;;;5020391;28;20136;-65
2024/03/11 09:09:07;;;;;;;36.58;19.25;;;;;;;;;;5023510;28;20120;-65
2024/03/11 09:11:33;;;;;;;41.65;19.45;;;;;;;;;;5024862;28;20057;-65
2024/03/11 09:13:59;;;;;;;39.15;18.65;;;;;;;;;;5021988;28;20057;-71
2024/03/11 09:16:27;;;;;;;36.72;18.50;;;;;;;;;;5020657;28;20346;-82
2024/03/11 09:18:54;;;;;;;36.97;19.20;;;;;;;;;;5023171;28;20049;-65
2024/03/11 09:21:21;;;;;;;38.08;20.50;;;;;;;;;;5020535;28;20041;-65
2024/03/11 09:23:48;;;;;;;35.55;19.95;;;;;;;;;;5018433;28;20050;-66
2024/03/11 09:26:14;;;;;;;41.67;20.60;;;;;;;;;;5017585;28;20395;-65
2024/03/11 09:28:41;;;;;;;36.28;19.35;;;;;;;;;;5020124;28;20436;-65
2024/03/11 09:31:07;;;;;;;37.80;20.33;;;;;;;;;;5020935;28;20095;-65
2024/03/11 09:33:34;;;;;;;36.45;18.70;;;;;;;;;;5041127;28;20056;-65
2024/03/11 09:36:00;;;;;;;37.22;19.75;;;;;;;;;;5023742;28;20044;-65
2024/03/11 09:38:27;;;;;;;44.65;19.98;;;;;;;;;;5041042;28;20053;-65
2024/03/11 09:40:53;;;;;;;40.22;20.67;;;;;;;;;;5040547;28;20926;-65
2024/03/11 09:43:20;;;;;;;47.70;19.30;;;;;;;;;;5043051;28;20121;-65
2024/03/11 09:45:51;;;;;;;36.00;19.17;;;;;;;;;;5025701;28;20037;-65
2024/03/11 09:48:17;;;;;;;35.70;19.13;;;;;;;;;;5039330;28;20100;-65
2024/03/11 09:50:43;;;;;;;37.45;19.63;;;;;;;;;;5024174;28;21900;-66
2024/03/11 09:53:18;;;;;;;39.45;18.70;;;;;;;;;;5023244;28;20915;-65
2024/03/11 09:55:45;;;;;;;39.00;20.10;;;;;;;;;;5043210;28;20040;-65
2024/03/11 09:58:13;;;;;;;41.35;20.30;;;;;;;;;;5024306;28;20084;-66
2024/03/11 10:00:49;;;;;;;40.03;19.23;;;;;;;;;;5041450;28;20061;-65
2024/03/11 10:03:16;;;;;;;39.83;19.58;;;;;;;;;;5038577;28;20117;-65
2024/03/11 10:05:44;;;;;;;43.63;21.77;;;;;;;;;;5043711;28;20040;-65
2024/03/11 10:08:11;;;;;;;38.88;18.95;;;;;;;;;;5025113;28;20590;-65
2024/03/11 10:10:39;;;;;;;33.83;16.98;;;;;;;;;;5027032;28;20047;-65
2024/03/11 10:13:05;;;;;;;37.78;19.00;;;;;;;;;;5008079;28;20045;-66
2024/03/11 10:15:33;;;;;;;38.40;19.40;;;;;;;;;;5023892;28;20072;-65
2024/03/11 10:18:14;;;;;;;38.65;20.35;;;;;;;;;;5027672;28;20507;-66
2024/03/11 10:20:43;;;;;;;34.42;20.15;;;;;;;;;;5027908;28;20053;-66
2024/03/11 10:23:10;;;;;;;35.00;20.05;;;;;;;;;;5026138;28;20045;-66
2024/03/11 10:25:40;;;;;;;40.22;20.40;;;;;;;;;;5027706;28;20181;-66
2024/03/11 10:28:06;;;;;;;37.63;20.98;;;;;;;;;;5042343;28;20044;-65
2024/03/11 10:30:32;;;;;;;37.50;20.80;;;;;;;;;;5023746;28;20049;-66
2024/03/11 10:33:02;;;;;;;37.53;21.33;;;;;;;;;;5027340;28;20155;-66
2024/03/11 10:35:33;;;;;;;39.10;20.85;;;;;;;;;;5021476;28;20097;-65
2024/03/11 10:38:10;;;;;;;34.10;20.63;;;;;;;;;;5025855;28;20037;-66
2024/03/11 10:40:38;;;;;;;36.67;21.13;;;;;;;;;;5011135;28;20053;-65
2024/03/11 10:43:19;;;;;;;39.55;22.02;;;;;;;;;;5022520;28;20088;-66
2024/03/11 10:45:47;;;;;;;42.80;20.65;;;;;;;;;;5024099;28;20140;-66
2024/03/11 10:48:15;;;;;;;38.65;21.02;;;;;;;;;;5021856;28;20491;-65
2024/03/11 10:50:41;;;;;;;39.35;22.52;;;;;;;;;;5020878;28;20052;-66
2024/03/11 10:53:12;;;;;;;37.80;22.42;;;;;;;;;;5021330;28;20057;-66
2024/03/11 10:55:42;;;;;;;47.30;22.52;;;;;;;;;;5022424;28;20562;-66
2024/03/11 10:58:13;;;;;;;39.33;21.38;;;;;;;;;;5021191;28;20049;-66
2024/03/11 11:00:43;;;;;;;39.63;21.05;;;;;;;;;;5020773;28;20744;-66
2024/03/11 11:03:12;;;;;;;36.75;19.98;;;;;;;;;;5022244;28;20124;-66
2024/03/11 11:05:47;;;;;;;39.90;20.80;;;;;;;;;;5023354;28;20037;-65
2024/03/11 11:08:13;;;;;;;36.50;21.02;;;;;;;;;;5036104;28;20052;-65
2024/03/11 11:10:42;;;;;;;34.83;21.15;;;;;;;;;;5023289;28;20124;-66
2024/03/11 11:13:08;;;;;;;37.65;19.58;;;;;;;;;;5020149;28;20049;-66
2024/03/11 11:15:36;;;;;;;36.95;19.67;;;;;;;;;;5021023;28;20489;-65
2024/03/11 11:18:05;;;;;;;33.72;19.90;;;;;;;;;;5022383;28;20041;-65
2024/03/11 11:20:39;;;;;;;38.75;21.95;;;;;;;;;;5021352;28;20463;-65
2024/03/11 11:23:10;;;;;;;37.20;20.98;;;;;;;;;;5022283;28;20094;-65
2024/03/11 11:25:42;;;;;;;35.63;20.60;;;;;;;;;;5022463;28;20679;-65
2024/03/11 11:28:13;;;;;;;36.50;21.40;;;;;;;;;;5022359;28;20591;-66
2024/03/11 11:30:43;;;;;;;35.75;20.35;;;;;;;;;;5017475;28;20060;-67
2024/03/11 11:33:10;;;;;;;33.78;18.85;;;;;;;;;;5018671;28;20049;-66
2024/03/11 11:35:40;;;;;;;40.20;21.52;;;;;;;;;;5018772;28;20037;-66
2024/03/11 11:38:27;;;;;;;42.80;20.98;;;;;;;;;;5036978;28;20076;-66
2024/03/11 11:40:53;;;;;;;37.22;20.17;;;;;;;;;;5013126;28;20049;-66
2024/03/11 11:43:22;;;;;;;35.33;20.40;;;;;;;;;;5015380;28;20061;-66
2024/03/11 11:45:50;;;;;;;35.83;21.30;;;;;;;;;;5022176;28;20049;-66
2024/03/11 11:48:21;;;;;;;33.00;20.08;;;;;;;;;;5021047;28;20053;-66
2024/03/11 11:50:47;;;;;;;28.92;19.38;;;;;;;;;;5013096;28;20041;-66
2024/03/11 11:53:14;;;;;;;38.38;19.25;;;;;;;;;;5025176;28;20123;-66
2024/03/11 11:55:51;;;;;;;39.60;19.90;;;;;;;;;;5022493;28;20049;-66
2024/03/11 11:58:17;;;;;;;36.33;20.23;;;;;;;;;;5024296;28;20163;-66
2024/03/11 12:00:43;;;;;;;34.25;19.25;;;;;;;;;;5023464;28;20034;-66
2024/03/11 12:03:30;;;;;;;33.88;19.17;;;;;;;;;;5021356;28;20053;-66
2024/03/11 12:06:17;;;;;;;32.33;19.80;;;;;;;;;;5024310;28;20053;-66
2024/03/11 12:08:44;;;;;;;36.67;19.88;;;;;;;;;;5023026;28;20053;-66
2024/03/11 12:11:12;;;;;;;36.88;18.67;;;;;;;;;;5024660;28;20041;-77
2024/03/11 12:13:41;;;;;;;33.08;18.02;;;;;;;;;;5023752;28;20529;-68
2024/03/11 12:16:10;;;;;;;37.40;20.30;;;;;;;;;;5024198;28;20402;-65
2024/03/11 12:18:36;;;;;;;43.03;21.17;;;;;;;;;;5026264;28;20447;-66
2024/03/11 12:21:05;;;;;;;36.15;20.35;;;;;;;;;;5030326;28;20038;-66
2024/03/11 12:23:31;;;;;;;37.28;19.77;;;;;;;;;;5034076;28;20041;-66
2024/03/11 12:25:58;;;;;;;37.25;21.77;;;;;;;;;;5030297;28;20489;-66
2024/03/11 12:28:24;;;;;;;39.22;21.08;;;;;;;;;;5030231;28;20103;-66
2024/03/11 12:30:51;;;;;;;37.00;23.08;;;;;;;;;;5030595;28;20473;-66
2024/03/11 12:33:21;;;;;;;35.22;20.38;;;;;;;;;;5026737;28;20085;-66
2024/03/11 12:35:50;;;;;;;36.58;21.98;;;;;;;;;;5026760;28;20227;-66
2024/03/11 12:38:17;;;;;;;41.33;20.95;;;;;;;;;;5028732;28;20065;-66
2024/03/11 12:40:44;;;;;;;38.20;20.50;;;;;;;;;;5030172;28;20056;-66
2024/03/11 12:43:19;;;;;;;36.45;21.85;;;;;;;;;;5031634;28;20049;-66
2024/03/11 12:45:47;;;;;;;35.88;19.90;;;;;;;;;;5028451;28;20090;-66
2024/03/11 12:48:14;;;;;;;39.88;22.77;;;;;;;;;;5028938;28;20076;-66
2024/03/11 12:50:41;;;;;;;36.05;20.45;;;;;;;;;;5029909;28;20218;-66
2024/03/11 12:53:12;;;;;;;32.65;19.67;;;;;;;;;;5028490;28;20350;-66
2024/03/11 12:55:38;;;;;;;34.72;20.27;;;;;;;;;;5029622;28;20623;-66
2024/03/11 12:58:05;;;;;;;40.50;20.17;;;;;;;;;;5029505;28;20465;-66
2024/03/11 13:00:33;;;;;;;34.30;19.52;;;;;;;;;;5028810;28;20127;-66
2024/03/11 13:03:08;;;;;;;30.98;19.60;;;;;;;;;;5030022;28;20066;-66
2024/03/11 13:05:36;;;;;;;32.42;18.73;;;;;;;;;;5023844;28;20144;-65
2024/03/11 13:08:05;;;;;;;30.92;18.52;;;;;;;;;;5025669;28;20508;-65
2024/03/11 13:10:31;;;;;;;33.17;19.23;;;;;;;;;;5035037;28;20120;-65
2024/03/11 13:12:58;;;;;;;38.75;20.77;;;;;;;;;;5027015;28;20114;-65
2024/03/11 13:15:27;;;;;;;38.15;20.35;;;;;;;;;;5028737;28;20033;-65
2024/03/11 13:17:56;;;;;;;37.45;19.92;;;;;;;;;;5034913;28;20041;-65
2024/03/11 13:20:37;;;;;;;35.60;19.58;;;;;;;;;;5027799;28;20087;-65
2024/03/11 13:23:06;;;;;;;31.02;18.52;;;;;;;;;;5028475;28;20056;-65
2024/03/11 13:25:33;;;;;;;38.70;20.15;;;;;;;;;;5030108;28;20055;-65
2024/03/11 13:27:59;;;;;;;36.97;19.63;;;;;;;;;;5030108;28;20449;-65
2024/03/11 13:30:26;;;;;;;34.60;19.88;;;;;;;;;;5030791;28;20389;-65
2024/03/11 13:32:56;;;;;;;30.65;18.08;;;;;;;;;;5026835;28;20037;-65
2024/03/11 13:35:24;;;;;;;35.80;18.08;;;;;;;;;;5030447;28;20057;-66
2024/03/11 13:37:50;;;;;;;33.95;17.98;;;;;;;;;;5029227;28;20416;-66
2024/03/11 13:40:19;;;;;;;35.10;19.40;;;;;;;;;;5025953;28;20343;-65
2024/03/11 13:42:45;;;;;;;33.05;18.48;;;;;;;;;;5028564;28;20082;-65
2024/03/11 13:45:12;;;;;;;37.70;18.80;;;;;;;;;;5033134;28;20034;-66
2024/03/11 13:47:39;;;;;;;37.42;19.65;;;;;;;;;;5029859;28;20092;-66
2024/03/11 13:50:16;;;;;;;27.90;17.73;;;;;;;;;;5029895;28;20037;-66
2024/03/11 13:52:45;;;;;;;32.95;18.50;;;;;;;;;;5022492;28;20057;-66
2024/03/11 13:55:12;;;;;;;31.42;18.95;;;;;;;;;;5019708;28;20091;-66
2024/03/11 13:57:43;;;;;;;35.88;17.88;;;;;;;;;;5022488;28;20041;-66
2024/03/11 14:00:10;;;;;;;28.88;18.38;;;;;;;;;;5028722;28;20049;-66
2024/03/11 14:02:36;;;;;;;34.17;19.90;;;;;;;;;;5029991;28;20121;-66
2024/03/11 14:05:03;;;;;;;35.05;20.75;;;;;;;;;;5032982;28;20110;-66
2024/03/11 14:07:30;;;;;;;33.08;20.50;;;;;;;;;;5022217;28;20053;-66
2024/03/11 14:09:56;;;;;;;29.90;16.98;;;;;;;;;;5028234;28;20053;-67
2024/03/11 14:12:22;;;;;;;34.53;19.92;;;;;;;;;;5021388;28;20121;-66
2024/03/11 14:14:48;;;;;;;32.63;19.02;;;;;;;;;;5018868;28;20092;-66
2024/03/11 14:17:14;;;;;;;36.25;20.10;;;;;;;;;;5022303;28;20401;-67
2024/03/11 14:19:41;;;;;;;31.95;20.08;;;;;;;;;;5023724;28;20069;-66